Time;durP1;ratioP1;P1;durP2;ratioP2;P2;SDS_P1;SDS_P2;PMS_P1;PMS_P2;Temp;Humidity;BMP_temperature;BMP_pressure;BME280_temperature;BME280_humidity;BME280_pressure;Samples;Min_cycle;Max_cycle;Signal;HPM_P1;HPM_P2
2022/07/12 00:02:20;;;;;;;;;;;;;;;17.53;71.90;102359.94;5053260;28;19960;-59
2022/07/12 00:04:45;;;;;;;;;;;;;;;17.51;72.20;102348.50;5050643;28;19956;-57
2022/07/12 00:07:10;;;;;;;;;;;;;;;17.47;72.33;102353.38;5048267;28;20011;-57
2022/07/12 00:09:35;;;;;;;;;;;;;;;17.44;72.34;102352.91;5049914;28;19964;-58
2022/07/12 00:12:01;;;;;;;;;;;;;;;17.40;72.27;102344.34;5057646;28;19928;-57
2022/07/12 00:14:26;;;;;;;;;;;;;;;17.37;72.41;102339.31;5052512;28;19924;-59
2022/07/12 00:16:51;;;;;;;;;;;;;;;17.31;72.67;102343.53;5054331;28;19929;-58
2022/07/12 00:19:17;;;;;;;;;;;;;;;17.27;72.60;102338.69;5058908;28;20500;-57
2022/07/12 00:21:42;;;;;;;;;;;;;;;17.22;72.56;102333.81;5053706;28;19929;-57
2022/07/12 00:24:07;;;;;;;;;;;;;;;17.20;72.70;102341.19;5049912;28;20398;-56
2022/07/12 00:26:32;;;;;;;;;;;;;;;17.18;72.53;102338.66;5050978;28;19939;-57
2022/07/12 00:28:58;;;;;;;;;;;;;;;17.13;72.76;102341.03;5050419;28;19924;-57
2022/07/12 00:31:23;;;;;;;;;;;;;;;17.11;72.80;102342.22;5051633;28;19935;-59
2022/07/12 00:33:48;;;;;;;;;;;;;;;17.10;72.68;102341.38;5057545;28;20011;-57
2022/07/12 00:36:14;;;;;;;;;;;;;;;17.09;73.08;102334.34;5053216;28;19948;-59
2022/07/12 00:38:39;;;;;;;;;;;;;;;17.10;72.87;102340.53;5063221;28;19936;-57
2022/07/12 00:41:05;;;;;;;;;;;;;;;17.08;72.83;102338.03;5058800;28;19994;-56
2022/07/12 00:43:30;;;;;;;;;;;;;;;17.06;72.72;102335.50;5056356;28;19931;-59
2022/07/12 00:45:56;;;;;;;;;;;;;;;17.05;72.80;102333.00;5059833;28;19943;-57
2022/07/12 00:48:21;;;;;;;;;;;;;;;17.01;73.02;102332.47;5050369;28;19939;-56
2022/07/12 00:50:46;;;;;;;;;;;;;;;17.01;72.92;102337.81;5066466;28;20264;-58
2022/07/12 00:53:12;;;;;;;;;;;;;;;17.01;73.04;102337.81;5055301;28;19935;-58
2022/07/12 00:55:38;;;;;;;;;;;;;;;16.99;72.79;102329.13;5053273;28;19925;-59
2022/07/12 00:58:03;;;;;;;;;;;;;;;16.98;73.40;102332.81;5059948;28;19924;-59
2022/07/12 01:00:28;;;;;;;;;;;;;;;16.97;73.33;102330.28;5055767;28;19924;-57
2022/07/12 01:02:55;;;;;;;;;;;;;;;16.95;73.26;102333.13;5060787;28;19924;-58
2022/07/12 01:05:20;;;;;;;;;;;;;;;16.92;73.18;102330.78;5064038;28;19931;-58
2022/07/12 01:07:45;;;;;;;;;;;;;;;16.87;73.61;102333.97;5060139;28;20341;-57
2022/07/12 01:10:11;;;;;;;;;;;;;;;16.83;73.40;102329.13;5055307;28;20072;-59
2022/07/12 01:12:36;;;;;;;;;;;;;;;16.75;73.65;102338.81;5037216;28;20375;-59
2022/07/12 01:15:04;;;;;;;;;;;;;;;16.66;73.79;102327.25;5057425;28;19935;-59
2022/07/12 01:17:30;;;;;;;;;;;;;;;16.60;74.33;102335.09;5056243;28;19925;-59
2022/07/12 01:19:56;;;;;;;;;;;;;;;16.53;73.87;102341.13;5048135;28;20397;-58
2022/07/12 01:22:27;;;;;;;;;;;;;;;16.48;74.25;102338.09;5049962;28;20343;-58
2022/07/12 01:24:52;;;;;;;;;;;;;;;16.43;73.96;102345.78;5047703;28;19929;-58
2022/07/12 01:27:18;;;;;;;;;;;;;;;16.35;74.61;102348.44;5049004;28;19931;-57
2022/07/12 01:29:43;;;;;;;;;;;;;;;16.27;74.34;102352.78;5052082;28;19928;-59
2022/07/12 01:32:28;;;;;;;;;;;;;;;16.22;74.39;102348.91;5048998;28;19970;-59
2022/07/12 01:34:57;;;;;;;;;;;;;;;16.18;74.31;102351.06;5058758;28;19942;-59
2022/07/12 01:37:23;;;;;;;;;;;;;;;16.17;74.45;102346.72;5039704;28;19971;-59
2022/07/12 01:39:52;;;;;;;;;;;;;;;16.17;74.33;102351.25;5050516;28;19981;-56
2022/07/12 01:42:18;;;;;;;;;;;;;;;16.17;74.38;102357.41;5045885;28;19983;-58
2022/07/12 01:44:43;;;;;;;;;;;;;;;16.16;74.57;102352.22;5047568;28;20023;-57
2022/07/12 01:47:08;;;;;;;;;;;;;;;16.14;74.63;102355.09;5049478;28;19925;-59
2022/07/12 01:49:33;;;;;;;;;;;;;;;16.12;74.59;102354.38;5049759;28;19924;-59
2022/07/12 01:51:59;;;;;;;;;;;;;;;16.09;75.10;102344.03;5056439;28;20015;-57
2022/07/12 01:54:24;;;;;;;;;;;;;;;16.05;75.02;102342.66;5061912;28;20371;-57
2022/07/12 01:56:50;;;;;;;;;;;;;;;16.04;74.77;102341.00;5060447;28;19963;-56
2022/07/12 01:59:15;;;;;;;;;;;;;;;16.03;75.13;102339.31;5062630;28;20398;-59
2022/07/12 02:01:40;;;;;;;;;;;;;;;16.03;74.69;102342.00;5052281;28;19924;-57
2022/07/12 02:04:05;;;;;;;;;;;;;;;16.03;74.45;102333.97;5056168;28;20333;-59
2022/07/12 02:06:33;;;;;;;;;;;;;;;16.03;74.58;102333.97;5055245;28;19924;-59
2022/07/12 02:08:58;;;;;;;;;;;;;;;15.98;74.75;102329.94;5052857;28;20326;-57
2022/07/12 02:11:24;;;;;;;;;;;;;;;15.96;74.54;102337.28;5064433;28;19931;-59
2022/07/12 02:13:49;;;;;;;;;;;;;;;15.95;74.73;102338.28;5071158;28;19925;-58
2022/07/12 02:16:15;;;;;;;;;;;;;;;15.94;74.53;102347.28;5049778;28;19931;-59
2022/07/12 02:18:40;;;;;;;;;;;;;;;15.90;74.74;102337.03;5052339;28;19925;-58
2022/07/12 02:21:05;;;;;;;;;;;;;;;15.89;74.73;102344.22;5047267;28;20337;-57
2022/07/12 02:23:30;;;;;;;;;;;;;;;15.85;75.04;102337.53;5051774;28;19938;-57
2022/07/12 02:25:55;;;;;;;;;;;;;;;15.81;74.57;102331.66;5056914;28;20019;-59
2022/07/12 02:28:21;;;;;;;;;;;;;;;15.80;74.79;102335.34;5056625;28;19935;-56
2022/07/12 02:30:46;;;;;;;;;;;;;;;15.79;74.45;102338.16;5058709;28;20382;-57
2022/07/12 02:33:15;;;;;;;;;;;;;;;15.78;75.11;102341.84;5052955;28;19947;-57
2022/07/12 02:35:40;;;;;;;;;;;;;;;15.73;75.19;102343.16;5054721;28;20563;-58
2022/07/12 02:38:05;;;;;;;;;;;;;;;15.70;75.10;102346.13;5054501;28;19974;-58
2022/07/12 02:43:15;;;;;;;;;;;;;;;15.66;74.92;102339.44;5057230;28;19931;-59
2022/07/12 02:45:40;;;;;;;;;;;;;;;15.62;75.06;102337.22;5053752;28;19925;-58
2022/07/12 02:48:05;;;;;;;;;;;;;;;15.62;75.02;102338.06;5058634;28;19924;-58
2022/07/12 02:50:30;;;;;;;;;;;;;;;15.60;75.15;102343.56;5050755;28;19921;-59
2022/07/12 02:52:55;;;;;;;;;;;;;;;15.58;75.15;102342.06;5054327;28;19955;-58
2022/07/12 02:55:20;;;;;;;;;;;;;;;15.56;74.93;102338.72;5060521;28;21742;-57
2022/07/12 02:57:46;;;;;;;;;;;;;;;15.54;75.22;102340.72;5053994;28;19964;-57
2022/07/12 03:00:11;;;;;;;;;;;;;;;15.53;75.06;102339.00;5051641;28;20023;-58
2022/07/12 03:02:36;;;;;;;;;;;;;;;15.49;74.83;102341.16;5056498;28;19967;-57
2022/07/12 03:05:02;;;;;;;;;;;;;;;15.48;74.95;102338.66;5054025;28;20293;-60
2022/07/12 03:07:27;;;;;;;;;;;;;;;15.45;75.09;102335.28;5053278;28;19982;-56
2022/07/12 03:09:52;;;;;;;;;;;;;;;15.43;75.30;102334.63;5051291;28;19960;-60
2022/07/12 03:12:17;;;;;;;;;;;;;;;15.42;75.11;102329.44;5048122;28;20018;-57
2022/07/12 03:14:43;;;;;;;;;;;;;;;15.41;75.11;102331.28;5049305;28;19928;-57
2022/07/12 03:17:08;;;;;;;;;;;;;;;15.39;75.25;102333.25;5059361;28;19963;-57
2022/07/12 03:19:33;;;;;;;;;;;;;;;15.34;75.16;102330.22;5056745;28;19935;-58
2022/07/12 03:21:58;;;;;;;;;;;;;;;15.30;75.34;102331.53;5049808;28;20428;-58
2022/07/12 03:24:23;;;;;;;;;;;;;;;15.28;75.25;102329.00;5054642;28;20093;-57
2022/07/12 03:26:49;;;;;;;;;;;;;;;15.27;75.43;102331.84;5059604;28;19924;-58
2022/07/12 03:29:15;;;;;;;;;;;;;;;15.26;74.95;102339.03;5057311;28;19928;-59
2022/07/12 03:31:40;;;;;;;;;;;;;;;15.25;75.43;102331.16;5049805;28;20671;-56
2022/07/12 03:34:05;;;;;;;;;;;;;;;15.23;75.18;102339.31;5053344;28;19924;-59
2022/07/12 03:36:31;;;;;;;;;;;;;;;15.22;75.38;102331.47;5051417;28;19932;-59
2022/07/12 03:38:56;;;;;;;;;;;;;;;15.18;75.64;102331.78;5046441;28;19931;-58
2022/07/12 03:41:21;;;;;;;;;;;;;;;15.14;75.65;102340.28;5056081;28;19958;-57
2022/07/12 03:43:47;;;;;;;;;;;;;;;15.13;75.50;102349.25;5053099;28;19924;-57
2022/07/12 03:46:12;;;;;;;;;;;;;;;15.10;75.45;102345.06;5057876;28;19929;-57
2022/07/12 03:48:37;;;;;;;;;;;;;;;15.10;75.67;102344.25;5064891;28;19959;-57
2022/07/12 03:51:02;;;;;;;;;;;;;;;15.10;75.51;102344.25;5047038;28;19967;-57
2022/07/12 03:53:27;;;;;;;;;;;;;;;15.08;75.90;102344.38;5048519;28;19939;-58
2022/07/12 03:55:52;;;;;;;;;;;;;;;15.07;75.41;102337.38;5051889;28;20005;-57
2022/07/12 03:58:18;;;;;;;;;;;;;;;15.06;75.33;102349.88;5049702;28;19929;-59
2022/07/12 04:00:43;;;;;;;;;;;;;;;15.06;75.70;102341.03;5062952;28;19929;-60
2022/07/12 04:03:10;;;;;;;;;;;;;;;15.08;75.93;102347.06;5051142;28;20753;-57
2022/07/12 04:05:35;;;;;;;;;;;;;;;15.09;75.63;102338.03;5049824;28;20354;-59
2022/07/12 04:08:01;;;;;;;;;;;;;;;15.08;75.89;102331.03;5051584;28;19925;-57
2022/07/12 04:10:27;;;;;;;;;;;;;;;15.07;75.54;102329.34;5051200;28;20354;-57
2022/07/12 04:12:52;;;;;;;;;;;;;;;15.07;75.69;102324.00;5052181;28;19931;-59
2022/07/12 04:15:17;;;;;;;;;;;;;;;15.04;76.04;102325.16;5056144;28;19928;-58
2022/07/12 04:17:42;;;;;;;;;;;;;;;15.06;75.84;102338.38;5054456;28;20553;-57
2022/07/12 04:20:08;;;;;;;;;;;;;;;15.09;75.67;102339.91;5052018;28;20016;-57
2022/07/12 04:22:33;;;;;;;;;;;;;;;15.11;76.04;102341.41;5046137;28;19935;-57
2022/07/12 04:24:58;;;;;;;;;;;;;;;15.13;76.08;102344.78;5049813;28;20028;-58
2022/07/12 04:27:26;;;;;;;;;;;;;;;15.17;77.75;102346.16;5050407;28;19947;-57
2022/07/12 04:29:51;;;;;;;;;;;;;;;15.12;77.07;102348.44;5053413;28;20329;-59
2022/07/12 04:32:16;;;;;;;;;;;;;;;15.10;76.30;102347.72;5051341;28;19925;-59
2022/07/12 04:34:41;;;;;;;;;;;;;;;15.11;77.29;102345.91;5051900;28;19931;-59
2022/07/12 04:37:06;;;;;;;;;;;;;;;15.11;77.10;102352.09;5050645;28;19924;-61
2022/07/12 04:39:32;;;;;;;;;;;;;;;15.09;79.33;102354.06;5045166;28;20029;-60
2022/07/12 04:41:57;;;;;;;;;;;;;;;15.05;77.82;102352.72;5054387;28;20042;-60
2022/07/12 04:44:22;;;;;;;;;;;;;;;15.08;78.39;102357.75;5063846;28;19929;-59
2022/07/12 04:46:47;;;;;;;;;;;;;;;15.10;77.91;102350.41;5044956;28;19929;-60
2022/07/12 04:49:13;;;;;;;;;;;;;;;15.15;76.92;102356.13;5042669;28;20459;-61
2022/07/12 04:51:38;;;;;;;;;;;;;;;15.20;77.71;102355.69;5045555;28;20098;-59
2022/07/12 04:54:03;;;;;;;;;;;;;;;15.22;77.22;102355.50;5047423;28;20627;-60
2022/07/12 04:56:29;;;;;;;;;;;;;;;15.25;76.65;102352.53;5045649;28;19963;-59
2022/07/12 04:58:54;;;;;;;;;;;;;;;15.31;76.47;102354.59;5049171;28;19924;-63
2022/07/12 05:01:19;;;;;;;;;;;;;;;15.36;76.94;102357.63;5047716;28;19929;-62
2022/07/12 05:03:44;;;;;;;;;;;;;;;15.41;76.63;102357.16;5043213;28;19928;-62
2022/07/12 05:06:09;;;;;;;;;;;;;;;15.44;76.98;102357.69;5048292;28;20671;-63
2022/07/12 05:08:35;;;;;;;;;;;;;;;15.51;77.55;102354.38;5045418;28;19924;-61
2022/07/12 05:11:00;;;;;;;;;;;;;;;15.57;76.41;102361.78;5048126;28;19970;-60
2022/07/12 05:13:25;;;;;;;;;;;;;;;15.61;76.95;102363.16;5066849;28;19928;-62
2022/07/12 05:15:50;;;;;;;;;;;;;;;15.61;77.40;102373.84;5050357;28;19985;-63
2022/07/12 05:18:15;;;;;;;;;;;;;;;15.60;77.29;102373.00;5044385;28;19929;-64
2022/07/12 05:20:41;;;;;;;;;;;;;;;15.62;76.94;102375.50;5030825;28;20473;-62
2022/07/12 05:23:07;;;;;;;;;;;;;;;15.66;77.53;102382.22;5041860;28;19924;-62
2022/07/12 05:25:32;;;;;;;;;;;;;;;15.68;77.30;102374.03;5043228;28;19925;-63
2022/07/12 05:27:57;;;;;;;;;;;;;;;15.73;77.60;102383.28;5044080;28;20401;-64
2022/07/12 05:30:22;;;;;;;;;;;;;;;15.79;77.55;102394.34;5065858;28;19928;-63
2022/07/12 05:32:49;;;;;;;;;;;;;;;15.79;77.74;102389.81;5045944;28;19924;-63
2022/07/12 05:35:14;;;;;;;;;;;;;;;15.82;78.09;102391.34;5051319;28;19925;-63
2022/07/12 05:37:39;;;;;;;;;;;;;;;15.87;77.82;102399.72;5037312;28;19924;-62
2022/07/12 05:40:05;;;;;;;;;;;;;;;15.93;78.19;102403.66;5058500;28;20375;-62
2022/07/12 05:42:30;;;;;;;;;;;;;;;16.02;77.57;102407.22;5048470;28;20002;-64
2022/07/12 05:44:55;;;;;;;;;;;;;;;16.06;79.37;102408.53;5053563;28;19946;-62
2022/07/12 05:47:20;;;;;;;;;;;;;;;16.12;77.95;102413.25;5054143;28;19979;-62
2022/07/12 05:49:46;;;;;;;;;;;;;;;16.21;78.34;102416.81;5067833;28;19924;-63
2022/07/12 05:54:55;;;;;;;;;;;;;;;16.43;80.38;102420.75;5050682;28;19986;-61
2022/07/12 05:57:20;;;;;;;;;;;;;;;16.54;78.74;102427.66;5049523;28;19928;-61
2022/07/12 05:59:45;;;;;;;;;;;;;;;16.61;78.61;102425.16;5055070;28;19925;-60
2022/07/12 06:02:11;;;;;;;;;;;;;;;16.69;81.53;102425.19;5055165;28;19928;-60
2022/07/12 06:04:36;;;;;;;;;;;;;;;16.75;81.44;102424.53;5055598;28;19932;-60
2022/07/12 06:07:01;;;;;;;;;;;;;;;16.86;83.40;102425.22;5055543;28;20912;-62
2022/07/12 06:09:27;;;;;;;;;;;;;;;16.89;81.31;102432.94;5056231;28;19924;-59
2022/07/12 06:11:52;;;;;;;;;;;;;;;16.93;79.65;102436.97;5052323;28;19924;-58
2022/07/12 06:14:17;;;;;;;;;;;;;;;17.01;79.04;102431.63;5056444;28;20318;-59
2022/07/12 06:16:43;;;;;;;;;;;;;;;17.15;79.52;102435.53;5057925;28;20350;-59
2022/07/12 06:19:08;;;;;;;;;;;;;;;17.27;78.92;102427.97;5057160;28;19924;-59
2022/07/12 06:21:33;;;;;;;;;;;;;;;17.38;79.74;102434.84;5059843;28;20141;-60
2022/07/12 06:23:59;;;;;;;;;;;;;;;17.51;79.71;102430.84;5058020;28;19924;-61
2022/07/12 06:26:24;;;;;;;;;;;;;;;17.64;79.62;102433.81;5059432;28;20405;-59
2022/07/12 06:28:49;;;;;;;;;;;;;;;17.77;80.23;102427.94;5059273;28;19992;-60
2022/07/12 06:31:14;;;;;;;;;;;;;;;17.87;80.06;102423.22;5060722;28;19931;-60
2022/07/12 06:33:40;;;;;;;;;;;;;;;17.94;79.72;102433.25;5058739;28;20484;-61
2022/07/12 06:36:05;;;;;;;;;;;;;;;17.96;80.23;102425.88;5057785;28;19928;-59
2022/07/12 06:38:31;;;;;;;;;;;;;;;18.02;79.46;102425.19;5061847;28;20398;-59
2022/07/12 06:40:56;;;;;;;;;;;;;;;18.12;79.10;102430.41;5061320;28;19930;-61
2022/07/12 06:43:21;;;;;;;;;;;;;;;18.24;79.28;102430.84;5060885;28;19921;-61
2022/07/12 06:45:46;;;;;;;;;;;;;;;18.36;78.25;102428.63;5054156;28;20375;-59
2022/07/12 06:48:11;;;;;;;;;;;;;;;18.46;77.92;102431.94;5062185;28;19974;-61
2022/07/12 06:50:37;;;;;;;;;;;;;;;18.56;77.87;102437.09;5059477;28;19930;-59
2022/07/12 06:53:02;;;;;;;;;;;;;;;18.64;77.62;102431.66;5058424;28;20394;-58
2022/07/12 06:55:28;;;;;;;;;;;;;;;18.76;77.22;102436.66;5064438;28;20035;-62
2022/07/12 06:57:53;;;;;;;;;;;;;;;18.85;77.18;102440.94;5046913;28;19928;-60
2022/07/12 07:00:18;;;;;;;;;;;;;;;18.93;77.03;102438.22;5072435;28;20041;-62
2022/07/12 07:02:43;;;;;;;;;;;;;;;18.96;76.47;102432.47;5056318;28;19935;-59
2022/07/12 07:05:10;;;;;;;;;;;;;;;19.05;76.41;102435.16;5074414;28;19932;-60
2022/07/12 07:07:36;;;;;;;;;;;;;;;19.16;76.17;102432.03;5059852;28;19925;-62
2022/07/12 07:10:01;;;;;;;;;;;;;;;19.27;75.76;102435.28;5059142;28;19952;-63
2022/07/12 07:12:26;;;;;;;;;;;;;;;19.39;75.68;102441.91;5059434;28;19928;-60
2022/07/12 07:14:51;;;;;;;;;;;;;;;19.51;75.54;102436.09;5058532;28;19943;-62
2022/07/12 07:17:17;;;;;;;;;;;;;;;19.62;74.99;102435.66;5064220;28;20385;-62
2022/07/12 07:19:43;;;;;;;;;;;;;;;19.71;75.21;102439.97;5059927;28;19924;-59
2022/07/12 07:22:09;;;;;;;;;;;;;;;19.82;74.69;102440.50;5053801;28;20442;-59
2022/07/12 07:24:34;;;;;;;;;;;;;;;19.91;74.23;102434.03;5077854;28;20003;-60
2022/07/12 07:26:59;;;;;;;;;;;;;;;20.03;73.84;102437.94;5080701;28;19924;-61
2022/07/12 07:32:08;;;;;;;;;;;;;;;20.23;73.06;102439.25;5060826;28;19973;-61
2022/07/12 07:34:34;;;;;;;;;;;;;;;20.31;72.32;102438.31;5051989;28;19924;-63
2022/07/12 07:36:59;;;;;;;;;;;;;;;20.37;72.90;102443.78;5060152;28;19932;-61
2022/07/12 07:39:24;;;;;;;;;;;;;;;20.45;71.95;102440.16;5063442;28;19928;-61
2022/07/12 07:41:49;;;;;;;;;;;;;;;20.53;72.08;102431.94;5056977;28;19921;-63
2022/07/12 07:44:14;;;;;;;;;;;;;;;20.60;72.09;102431.19;5058635;28;19936;-63
2022/07/12 07:46:39;;;;;;;;;;;;;;;20.62;72.36;102423.75;5053720;28;20367;-59
2022/07/12 07:49:05;;;;;;;;;;;;;;;20.60;71.16;102432.03;5059170;28;19939;-61
2022/07/12 07:51:30;;;;;;;;;;;;;;;20.60;72.01;102432.03;5054967;28;19925;-61
2022/07/12 07:53:55;;;;;;;;;;;;;;;20.61;70.18;102430.19;5051764;28;19923;-61
2022/07/12 07:56:20;;;;;;;;;;;;;;;20.63;71.21;102428.13;5056514;28;19931;-60
2022/07/12 07:58:45;;;;;;;;;;;;;;;20.70;70.94;102426.31;5053711;28;19960;-63
2022/07/12 08:01:11;;;;;;;;;;;;;;;20.79;70.94;102418.94;5060205;28;20021;-62
2022/07/12 08:03:36;;;;;;;;;;;;;;;20.86;70.23;102421.75;5063072;28;19935;-62
2022/07/12 08:06:01;;;;;;;;;;;;;;;20.88;70.40;102423.25;5050424;28;19935;-63
2022/07/12 08:08:28;;;;;;;;;;;;;;;20.91;69.60;102430.09;5068763;28;19925;-65
2022/07/12 08:10:53;;;;;;;;;;;;;;;20.88;69.78;102438.56;5057238;28;19925;-62
2022/07/12 08:13:19;;;;;;;;;;;;;;;20.86;69.50;102436.06;5056293;28;19990;-60
2022/07/12 08:15:44;;;;;;;;;;;;;;;20.88;69.47;102430.47;5047190;28;20007;-61
2022/07/12 08:18:09;;;;;;;;;;;;;;;20.88;69.64;102433.19;5061594;28;19985;-61
2022/07/12 08:20:34;;;;;;;;;;;;;;;20.90;69.80;102431.13;5052578;28;19928;-61
2022/07/12 08:23:00;;;;;;;;;;;;;;;20.93;69.63;102430.75;5057569;28;22023;-61
2022/07/12 08:25:25;;;;;;;;;;;;;;;20.95;67.70;102434.91;5059152;28;19925;-60
2022/07/12 08:27:50;;;;;;;;;;;;;;;20.96;68.13;102430.34;5055646;28;20271;-62
2022/07/12 08:30:16;;;;;;;;;;;;;;;21.01;66.55;102438.69;5053237;28;20022;-62
2022/07/12 08:32:45;;;;;;;;;;;;;;;21.07;68.10;102440.63;5051127;28;22565;-61
2022/07/12 08:35:11;;;;;;;;;;;;;;;21.16;65.48;102448.59;5049274;28;19975;-60
2022/07/12 08:37:36;;;;;;;;;;;;;;;21.22;67.89;102439.72;5056519;28;20040;-61
2022/07/12 08:40:02;;;;;;;;;;;;;;;21.22;67.93;102445.13;5051636;28;21662;-60
2022/07/12 08:42:27;;;;;;;;;;;;;;;21.23;67.44;102446.78;5050766;28;19930;-62
2022/07/12 08:44:55;;;;;;;;;;;;;;;21.23;67.44;102447.59;5053420;28;19920;-60
2022/07/12 08:47:20;;;;;;;;;;;;;;;21.25;66.60;102444.72;5056740;28;19925;-60
2022/07/12 08:50:05;;;;;;;;;;;;;;;21.29;66.70;102450.56;5064829;28;19925;-57
2022/07/12 08:52:30;;;;;;;;;;;;;;;21.31;66.41;102453.91;5049690;28;19951;-57
2022/07/12 08:54:55;;;;;;;;;;;;;;;21.32;66.60;102456.41;5056813;28;20543;-57
2022/07/12 08:57:32;;;;;;;;;;;;;;;21.39;66.03;102452.91;5050466;28;19960;-61
2022/07/12 08:59:58;;;;;;;;;;;;;;;21.49;65.64;102454.28;5059522;28;19924;-59
2022/07/12 09:02:24;;;;;;;;;;;;;;;21.62;66.65;102455.41;5058472;28;19982;-61
2022/07/12 09:05:05;;;;;;;;;;;;;;;21.78;66.56;102457.00;5059832;28;19929;-63
2022/07/12 09:07:30;;;;;;;;;;;;;;;21.94;63.02;102460.44;5047188;28;19935;-60
2022/07/12 09:10:02;;;;;;;;;;;;;;;22.01;64.88;102453.19;5048132;28;19925;-62
2022/07/12 09:12:27;;;;;;;;;;;;;;;22.09;64.55;102450.31;5058250;28;20011;-63
2022/07/12 09:14:52;;;;;;;;;;;;;;;22.20;64.80;102450.78;5056787;28;20019;-62
2022/07/12 09:17:21;;;;;;;;;;;;;;;22.29;64.23;102455.81;5054900;28;19951;-60
2022/07/12 09:19:55;;;;;;;;;;;;;;;22.38;64.34;102447.53;5054243;28;19934;-61
2022/07/12 09:22:21;;;;;;;;;;;;;;;22.36;62.04;102452.31;5050907;28;20432;-61
2022/07/12 09:24:46;;;;;;;;;;;;;;;22.40;62.83;102446.28;5054913;28;19928;-61
2022/07/12 09:27:12;;;;;;;;;;;;;;;22.59;63.96;102443.88;5062427;28;20292;-62
2022/07/12 09:29:47;;;;;;;;;;;;;;;22.75;61.53;102447.28;5058652;28;19929;-61
2022/07/12 09:37:41;;;;;;;;;;;;;;;23.02;60.71;102433.78;5052802;28;20492;-61
2022/07/12 09:40:07;;;;;;;;;;;;;;;23.05;56.95;102430.69;5053184;28;19925;-63
2022/07/12 09:42:33;;;;;;;;;;;;;;;23.09;60.66;102437.34;5052729;28;19924;-61
2022/07/12 09:44:59;;;;;;;;;;;;;;;23.12;60.98;102431.50;5050707;28;19924;-63
2022/07/12 09:47:25;;;;;;;;;;;;;;;23.18;59.83;102441.50;5057091;28;19987;-61
2022/07/12 09:49:51;;;;;;;;;;;;;;;23.10;59.84;102436.31;5060858;28;19937;-63
2022/07/12 09:52:25;;;;;;;;;;;;;;;23.09;60.82;102437.34;5053263;28;20409;-63
2022/07/12 09:54:52;;;;;;;;;;;;;;;23.23;59.30;102436.31;5047073;28;19929;-61
2022/07/12 09:57:20;;;;;;;;;;;;;;;23.31;59.37;102434.44;5051998;28;20530;-61
2022/07/12 09:59:47;;;;;;;;;;;;;;;23.44;58.91;102429.03;5049252;28;19931;-56
2022/07/12 10:02:15;;;;;;;;;;;;;;;23.58;58.84;102426.31;5055743;28;19924;-58
2022/07/12 10:04:41;;;;;;;;;;;;;;;23.69;58.97;102422.97;5049378;28;19924;-59
2022/07/12 10:07:06;;;;;;;;;;;;;;;23.83;59.64;102431.06;5046834;28;19951;-56
2022/07/12 10:09:32;;;;;;;;;;;;;;;23.95;59.49;102423.94;5061918;28;19924;-58
2022/07/12 10:11:57;;;;;;;;;;;;;;;24.07;58.84;102426.00;5047787;28;19936;-60
2022/07/12 10:14:23;;;;;;;;;;;;;;;24.20;56.30;102417.84;5053377;28;20287;-59
2022/07/12 10:16:50;;;;;;;;;;;;;;;24.12;56.67;102412.66;5053114;28;20374;-60
2022/07/12 10:19:22;;;;;;;;;;;;;;;24.13;56.49;102408.91;5047417;28;20040;-61
2022/07/12 10:21:51;;;;;;;;;;;;;;;24.28;55.85;102416.75;5046461;28;19939;-59
2022/07/12 10:24:42;;;;;;;;;;;;;;;24.41;57.40;102405.00;5049296;28;19928;-58
2022/07/12 10:27:13;;;;;;;;;;;;;;;24.51;57.52;102402.66;5049422;28;19959;-62
2022/07/12 10:29:42;;;;;;;;;;;;;;;24.57;57.87;102409.91;5060324;28;19924;-59
2022/07/12 10:32:27;;;;;;;;;;;;;;;24.67;57.74;102408.63;5050778;28;19925;-59
2022/07/12 10:35:01;;;;;;;;;;;;;;;24.70;56.76;102413.59;5044607;28;19940;-60
2022/07/12 10:37:29;;;;;;;;;;;;;;;24.80;55.76;102408.53;5050608;28;19968;-60
2022/07/12 10:40:13;;;;;;;;;;;;;;;24.89;56.11;102416.41;5052127;28;20037;-61
2022/07/12 10:42:38;;;;;;;;;;;;;;;25.02;53.48;102410.91;5048633;28;20002;-62
2022/07/12 10:45:16;;;;;;;;;;;;;;;24.82;55.62;102406.44;5059484;28;20356;-60
2022/07/12 10:47:54;;;;;;;;;;;;;;;24.87;54.57;102413.09;5050204;28;19924;-62
2022/07/12 10:50:37;;;;;;;;;;;;;;;24.85;55.85;102411.44;5050501;28;19951;-62
2022/07/12 10:53:21;;;;;;;;;;;;;;;24.92;54.27;102405.94;5051931;28;20007;-61
2022/07/12 10:56:04;;;;;;;;;;;;;;;25.02;54.97;102400.06;5049165;28;20398;-61
2022/07/12 10:58:37;;;;;;;;;;;;;;;25.20;54.52;102406.56;5069128;28;20048;-60
2022/07/12 11:01:03;;;;;;;;;;;;;;;25.33;53.69;102409.19;5051685;28;19928;-60
2022/07/12 11:03:36;;;;;;;;;;;;;;;25.39;53.55;102411.00;5052921;28;19925;-60
2022/07/12 11:06:05;;;;;;;;;;;;;;;25.48;51.37;102413.41;5062108;28;19924;-61
2022/07/12 11:08:30;;;;;;;;;;;;;;;25.38;52.15;102419.34;5062508;28;19924;-60
2022/07/12 11:10:56;;;;;;;;;;;;;;;25.42;53.81;102417.03;5053585;28;19923;-60
2022/07/12 11:13:25;;;;;;;;;;;;;;;25.50;51.86;102406.69;5051760;28;19929;-60
2022/07/12 11:15:57;;;;;;;;;;;;;;;25.58;52.75;102408.34;5053506;28;19975;-60
2022/07/12 11:18:27;;;;;;;;;;;;;;;25.64;53.21;102406.59;5051608;28;20457;-60
2022/07/12 11:20:55;;;;;;;;;;;;;;;25.72;50.58;102402.75;5051284;28;20031;-60
2022/07/12 11:23:20;;;;;;;;;;;;;;;25.74;50.71;102400.63;5035947;28;21582;-61
2022/07/12 11:25:45;;;;;;;;;;;;;;;25.79;52.06;102403.50;5056327;28;19920;-60
2022/07/12 11:28:10;;;;;;;;;;;;;;;25.85;52.12;102397.16;5063346;28;19931;-59
2022/07/12 11:30:36;;;;;;;;;;;;;;;25.88;51.24;102393.16;5057019;28;20419;-61
2022/07/12 11:33:01;;;;;;;;;;;;;;;25.90;51.22;102386.44;5053379;28;20485;-60
2022/07/12 11:35:26;;;;;;;;;;;;;;;26.04;50.33;102381.66;5050380;28;19929;-60
2022/07/12 11:37:53;;;;;;;;;;;;;;;26.08;50.60;102384.75;5059545;28;19925;-61
2022/07/12 11:40:26;;;;;;;;;;;;;;;26.14;50.85;102383.84;5053840;28;19935;-60
2022/07/12 11:42:52;;;;;;;;;;;;;;;26.18;51.18;102382.34;5053110;28;19924;-60
2022/07/12 11:45:17;;;;;;;;;;;;;;;26.19;50.68;102380.41;5057021;28;19982;-61
2022/07/12 11:47:42;;;;;;;;;;;;;;;26.25;51.14;102378.72;5061878;28;19929;-62
2022/07/12 11:50:07;;;;;;;;;;;;;;;26.27;48.89;102374.72;5049494;28;20402;-59
2022/07/12 11:52:34;;;;;;;;;;;;;;;26.25;50.18;102384.16;5046784;28;19935;-59
2022/07/12 11:55:06;;;;;;;;;;;;;;;26.35;50.34;102395.31;5043237;28;19932;-59
2022/07/12 11:57:32;;;;;;;;;;;;;;;26.44;50.44;102383.03;5049247;28;19968;-60
2022/07/12 11:59:57;;;;;;;;;;;;;;;26.54;50.31;102381.66;5046423;28;19978;-61
2022/07/12 12:02:23;;;;;;;;;;;;;;;26.52;47.15;102378.31;5043876;28;19936;-61
2022/07/12 12:04:52;;;;;;;;;;;;;;;26.51;48.77;102379.38;5051195;28;19935;-59
2022/07/12 12:07:18;;;;;;;;;;;;;;;26.41;47.75;102380.78;5045125;28;19983;-60
2022/07/12 12:10:02;;;;;;;;;;;;;;;26.52;47.88;102383.75;5053256;28;19936;-60
2022/07/12 12:12:35;;;;;;;;;;;;;;;26.61;48.82;102376.09;5053825;28;19929;-60
2022/07/12 12:15:03;;;;;;;;;;;;;;;26.90;45.03;102374.41;5051486;28;19924;-58
2022/07/12 12:17:28;;;;;;;;;;;;;;;26.72;46.96;102370.69;5050586;28;20526;-60
2022/07/12 12:19:53;;;;;;;;;;;;;;;26.77;44.68;102364.53;5046283;28;19952;-60
2022/07/12 12:22:49;;;;;;;;;;;;;;;26.77;46.63;102363.72;5049922;28;19924;-59
2022/07/12 12:25:14;;;;;;;;;;;;;;;26.89;46.98;102371.91;5025041;28;19965;-59
2022/07/12 12:27:40;;;;;;;;;;;;;;;26.97;47.34;102358.81;5048482;28;19928;-58
2022/07/12 12:30:06;;;;;;;;;;;;;;;27.04;45.71;102363.31;5055706;28;19924;-60
2022/07/12 12:32:42;;;;;;;;;;;;;;;27.04;46.44;102366.03;5050925;28;19935;-59
2022/07/12 12:35:11;;;;;;;;;;;;;;;27.09;45.63;102366.16;5051880;28;20027;-60
2022/07/12 12:37:36;;;;;;;;;;;;;;;27.02;45.58;102357.28;5064605;28;20410;-58
2022/07/12 12:40:05;;;;;;;;;;;;;;;26.95;43.28;102355.50;5057691;28;19924;-58
2022/07/12 12:42:30;;;;;;;;;;;;;;;26.99;45.20;102353.13;5053753;28;19982;-61
2022/07/12 12:44:55;;;;;;;;;;;;;;;27.04;44.98;102352.41;5053419;28;19924;-59
2022/07/12 12:47:30;;;;;;;;;;;;;;;27.01;45.64;102350.16;5056598;28;19928;-59